sensor_id;sensor_type;location;lat;lon;timestamp;P1;durP1;ratioP1;P2;durP2;ratioP2
1296;SDS011;641;48.492;9.184;2023-02-01T00:00:04;8.20;;;2.80;;
1296;SDS011;641;48.492;9.184;2023-02-01T00:02:30;9.23;;;2.90;;
1296;SDS011;641;48.492;9.184;2023-02-01T00:04:56;13.63;;;3.67;;
1296;SDS011;641;48.492;9.184;2023-02-01T00:07:22;8.40;;;3.33;;
1296;SDS011;641;48.492;9.184;2023-02-01T00:09:47;15.00;;;3.47;;
1296;SDS011;641;48.492;9.184;2023-02-01T00:12:13;11.73;;;4.27;;
1296;SDS011;641;48.492;9.184;2023-02-01T00:14:38;10.20;;;2.73;;
1296;SDS011;641;48.492;9.184;2023-02-01T00:17:05;9.37;;;3.07;;
1296;SDS011;641;48.492;9.184;2023-02-01T00:19:31;8.30;;;2.90;;
1296;SDS011;641;48.492;9.184;2023-02-01T00:21:57;9.00;;;3.50;;
1296;SDS011;641;48.492;9.184;2023-02-01T00:24:22;7.77;;;3.33;;
1296;SDS011;641;48.492;9.184;2023-02-01T00:26:48;7.50;;;2.87;;
1296;SDS011;641;48.492;9.184;2023-02-01T00:29:18;10.43;;;3.17;;
1296;SDS011;641;48.492;9.184;2023-02-01T00:31:45;8.37;;;2.97;;
1296;SDS011;641;48.492;9.184;2023-02-01T00:34:14;9.20;;;3.17;;
1296;SDS011;641;48.492;9.184;2023-02-01T00:36:41;9.83;;;2.97;;
1296;SDS011;641;48.492;9.184;2023-02-01T00:39:08;7.80;;;2.57;;
1296;SDS011;641;48.492;9.184;2023-02-01T00:41:34;7.87;;;2.90;;
1296;SDS011;641;48.492;9.184;2023-02-01T00:44:00;9.00;;;3.20;;
1296;SDS011;641;48.492;9.184;2023-02-01T00:46:26;10.70;;;3.27;;
1296;SDS011;641;48.492;9.184;2023-02-01T00:48:52;8.17;;;2.80;;
1296;SDS011;641;48.492;9.184;2023-02-01T00:51:22;10.13;;;3.23;;
1296;SDS011;641;48.492;9.184;2023-02-01T00:53:50;8.07;;;3.13;;
1296;SDS011;641;48.492;9.184;2023-02-01T00:56:15;10.83;;;2.60;;
1296;SDS011;641;48.492;9.184;2023-02-01T00:58:41;8.87;;;2.93;;
1296;SDS011;641;48.492;9.184;2023-02-01T01:03:40;6.50;;;2.00;;
1296;SDS011;641;48.492;9.184;2023-02-01T01:06:09;7.23;;;2.00;;
1296;SDS011;641;48.492;9.184;2023-02-01T01:08:37;9.00;;;2.50;;
1296;SDS011;641;48.492;9.184;2023-02-01T01:11:07;7.33;;;2.13;;
1296;SDS011;641;48.492;9.184;2023-02-01T01:13:36;7.60;;;2.10;;
1296;SDS011;641;48.492;9.184;2023-02-01T01:16:03;7.90;;;2.57;;
1296;SDS011;641;48.492;9.184;2023-02-01T01:18:30;6.87;;;2.03;;
1296;SDS011;641;48.492;9.184;2023-02-01T01:20:56;8.53;;;2.10;;
1296;SDS011;641;48.492;9.184;2023-02-01T01:23:22;6.87;;;1.93;;
1296;SDS011;641;48.492;9.184;2023-02-01T01:25:48;7.43;;;2.10;;
1296;SDS011;641;48.492;9.184;2023-02-01T01:28:14;7.80;;;2.43;;
1296;SDS011;641;48.492;9.184;2023-02-01T01:30:39;8.37;;;2.90;;
1296;SDS011;641;48.492;9.184;2023-02-01T01:33:05;8.03;;;1.97;;
1296;SDS011;641;48.492;9.184;2023-02-01T01:35:31;5.97;;;1.63;;
1296;SDS011;641;48.492;9.184;2023-02-01T01:37:58;6.30;;;1.30;;
1296;SDS011;641;48.492;9.184;2023-02-01T01:40:24;6.57;;;1.70;;
1296;SDS011;641;48.492;9.184;2023-02-01T01:42:51;6.80;;;2.00;;
1296;SDS011;641;48.492;9.184;2023-02-01T01:47:54;6.90;;;2.00;;
1296;SDS011;641;48.492;9.184;2023-02-01T01:50:36;6.00;;;1.50;;
1296;SDS011;641;48.492;9.184;2023-02-01T01:53:08;6.70;;;1.80;;
1296;SDS011;641;48.492;9.184;2023-02-01T01:55:37;9.30;;;1.70;;
1296;SDS011;641;48.492;9.184;2023-02-01T01:58:09;6.47;;;1.77;;
1296;SDS011;641;48.492;9.184;2023-02-01T02:00:39;7.00;;;1.60;;
1296;SDS011;641;48.492;9.184;2023-02-01T02:03:11;5.90;;;1.40;;
1296;SDS011;641;48.492;9.184;2023-02-01T02:05:42;6.60;;;1.57;;
1296;SDS011;641;48.492;9.184;2023-02-01T02:08:08;6.40;;;1.43;;
1296;SDS011;641;48.492;9.184;2023-02-01T02:10:35;6.30;;;1.30;;
1296;SDS011;641;48.492;9.184;2023-02-01T02:13:20;5.87;;;1.37;;
1296;SDS011;641;48.492;9.184;2023-02-01T02:15:49;6.00;;;1.23;;
1296;SDS011;641;48.492;9.184;2023-02-01T02:24:07;5.90;;;1.40;;
1296;SDS011;641;48.492;9.184;2023-02-01T02:35:55;5.80;;;1.40;;
1296;SDS011;641;48.492;9.184;2023-02-01T02:38:38;5.97;;;1.23;;
1296;SDS011;641;48.492;9.184;2023-02-01T02:41:18;5.70;;;1.20;;
1296;SDS011;641;48.492;9.184;2023-02-01T02:44:10;7.17;;;1.30;;
1296;SDS011;641;48.492;9.184;2023-02-01T02:47:03;6.23;;;1.13;;
1296;SDS011;641;48.492;9.184;2023-02-01T02:49:54;5.97;;;1.23;;
1296;SDS011;641;48.492;9.184;2023-02-01T02:53:33;6.00;;;1.60;;
1296;SDS011;641;48.492;9.184;2023-02-01T02:56:00;5.60;;;1.30;;
1296;SDS011;641;48.492;9.184;2023-02-01T02:58:47;6.57;;;1.70;;
1296;SDS011;641;48.492;9.184;2023-02-01T03:01:32;5.80;;;1.40;;
1296;SDS011;641;48.492;9.184;2023-02-01T03:04:16;8.40;;;1.40;;
1296;SDS011;641;48.492;9.184;2023-02-01T03:06:43;9.27;;;1.70;;
1296;SDS011;641;48.492;9.184;2023-02-01T03:09:13;6.13;;;1.27;;
1296;SDS011;641;48.492;9.184;2023-02-01T03:11:52;6.90;;;1.47;;
1296;SDS011;641;48.492;9.184;2023-02-01T03:14:43;5.67;;;1.33;;
1296;SDS011;641;48.492;9.184;2023-02-01T03:17:16;6.20;;;1.30;;
1296;SDS011;641;48.492;9.184;2023-02-01T03:19:46;6.73;;;1.80;;
1296;SDS011;641;48.492;9.184;2023-02-01T03:22:23;6.80;;;1.70;;
1296;SDS011;641;48.492;9.184;2023-02-01T03:24:55;6.23;;;1.30;;
1296;SDS011;641;48.492;9.184;2023-02-01T03:27:27;6.50;;;1.87;;
1296;SDS011;641;48.492;9.184;2023-02-01T03:32:33;5.77;;;1.47;;
1296;SDS011;641;48.492;9.184;2023-02-01T03:35:20;6.40;;;1.60;;
1296;SDS011;641;48.492;9.184;2023-02-01T03:37:52;6.27;;;1.77;;
1296;SDS011;641;48.492;9.184;2023-02-01T03:40:21;6.13;;;1.43;;
1296;SDS011;641;48.492;9.184;2023-02-01T03:42:48;5.90;;;1.30;;
1296;SDS011;641;48.492;9.184;2023-02-01T03:47:52;7.00;;;1.50;;
1296;SDS011;641;48.492;9.184;2023-02-01T03:50:21;7.00;;;1.80;;
1296;SDS011;641;48.492;9.184;2023-02-01T03:53:03;6.10;;;1.50;;
1296;SDS011;641;48.492;9.184;2023-02-01T03:55:35;6.23;;;1.50;;
1296;SDS011;641;48.492;9.184;2023-02-01T04:00:44;7.80;;;1.90;;
1296;SDS011;641;48.492;9.184;2023-02-01T04:03:21;7.13;;;1.67;;
1296;SDS011;641;48.492;9.184;2023-02-01T04:05:48;7.93;;;1.70;;
1296;SDS011;641;48.492;9.184;2023-02-01T04:08:14;6.33;;;1.30;;
1296;SDS011;641;48.492;9.184;2023-02-01T04:10:40;5.90;;;1.23;;
1296;SDS011;641;48.492;9.184;2023-02-01T04:13:05;6.97;;;1.90;;
1296;SDS011;641;48.492;9.184;2023-02-01T04:15:31;6.23;;;1.40;;
1296;SDS011;641;48.492;9.184;2023-02-01T04:17:57;6.07;;;1.30;;
1296;SDS011;641;48.492;9.184;2023-02-01T04:20:22;6.20;;;1.57;;
1296;SDS011;641;48.492;9.184;2023-02-01T04:22:48;5.67;;;1.23;;
1296;SDS011;641;48.492;9.184;2023-02-01T04:25:13;7.03;;;1.67;;
1296;SDS011;641;48.492;9.184;2023-02-01T04:27:39;6.63;;;1.93;;
1296;SDS011;641;48.492;9.184;2023-02-01T04:30:05;6.07;;;1.50;;
1296;SDS011;641;48.492;9.184;2023-02-01T04:32:34;6.20;;;1.60;;
1296;SDS011;641;48.492;9.184;2023-02-01T04:35:00;6.20;;;1.60;;
1296;SDS011;641;48.492;9.184;2023-02-01T04:37:26;6.73;;;1.93;;
1296;SDS011;641;48.492;9.184;2023-02-01T04:39:51;6.60;;;1.60;;
1296;SDS011;641;48.492;9.184;2023-02-01T04:42:17;7.53;;;1.60;;
1296;SDS011;641;48.492;9.184;2023-02-01T04:44:42;7.00;;;1.63;;
1296;SDS011;641;48.492;9.184;2023-02-01T04:47:08;6.33;;;1.47;;
1296;SDS011;641;48.492;9.184;2023-02-01T04:49:34;6.30;;;1.67;;
1296;SDS011;641;48.492;9.184;2023-02-01T04:52:00;6.63;;;1.33;;
1296;SDS011;641;48.492;9.184;2023-02-01T04:54:25;7.40;;;1.30;;
1296;SDS011;641;48.492;9.184;2023-02-01T04:56:51;6.10;;;1.43;;
1296;SDS011;641;48.492;9.184;2023-02-01T04:59:16;6.73;;;1.53;;
1296;SDS011;641;48.492;9.184;2023-02-01T05:01:42;7.07;;;1.60;;
1296;SDS011;641;48.492;9.184;2023-02-01T05:04:08;6.43;;;1.60;;
1296;SDS011;641;48.492;9.184;2023-02-01T05:06:33;7.10;;;1.50;;
1296;SDS011;641;48.492;9.184;2023-02-01T05:08:59;6.80;;;1.60;;
1296;SDS011;641;48.492;9.184;2023-02-01T05:11:25;7.00;;;2.10;;
1296;SDS011;641;48.492;9.184;2023-02-01T05:14:09;7.17;;;1.70;;
1296;SDS011;641;48.492;9.184;2023-02-01T05:16:34;5.90;;;1.60;;
1296;SDS011;641;48.492;9.184;2023-02-01T05:19:00;7.47;;;1.60;;
1296;SDS011;641;48.492;9.184;2023-02-01T05:21:26;6.77;;;1.33;;
1296;SDS011;641;48.492;9.184;2023-02-01T05:23:51;5.90;;;1.40;;
1296;SDS011;641;48.492;9.184;2023-02-01T05:26:35;16.60;;;7.27;;
1296;SDS011;641;48.492;9.184;2023-02-01T05:29:02;6.83;;;1.40;;
1296;SDS011;641;48.492;9.184;2023-02-01T05:31:27;5.60;;;1.27;;
1296;SDS011;641;48.492;9.184;2023-02-01T05:33:53;6.60;;;1.53;;
1296;SDS011;641;48.492;9.184;2023-02-01T05:36:19;6.50;;;1.43;;
1296;SDS011;641;48.492;9.184;2023-02-01T05:38:44;5.80;;;1.37;;
1296;SDS011;641;48.492;9.184;2023-02-01T05:41:10;5.83;;;1.17;;
1296;SDS011;641;48.492;9.184;2023-02-01T05:43:36;5.90;;;1.23;;
1296;SDS011;641;48.492;9.184;2023-02-01T05:46:01;5.83;;;1.23;;
1296;SDS011;641;48.492;9.184;2023-02-01T05:48:27;6.07;;;1.17;;
1296;SDS011;641;48.492;9.184;2023-02-01T05:50:52;6.43;;;1.40;;
1296;SDS011;641;48.492;9.184;2023-02-01T05:53:19;6.70;;;1.27;;
1296;SDS011;641;48.492;9.184;2023-02-01T05:55:44;5.73;;;1.13;;
1296;SDS011;641;48.492;9.184;2023-02-01T05:58:10;7.30;;;1.47;;
1296;SDS011;641;48.492;9.184;2023-02-01T06:00:37;6.93;;;1.10;;
1296;SDS011;641;48.492;9.184;2023-02-01T06:03:03;5.73;;;1.00;;
1296;SDS011;641;48.492;9.184;2023-02-01T06:05:28;6.37;;;1.03;;
1296;SDS011;641;48.492;9.184;2023-02-01T06:07:54;6.07;;;1.23;;
1296;SDS011;641;48.492;9.184;2023-02-01T06:10:20;7.40;;;1.30;;
1296;SDS011;641;48.492;9.184;2023-02-01T06:12:46;6.50;;;1.37;;
1296;SDS011;641;48.492;9.184;2023-02-01T06:15:12;5.73;;;1.20;;
1296;SDS011;641;48.492;9.184;2023-02-01T06:17:40;5.90;;;1.13;;
1296;SDS011;641;48.492;9.184;2023-02-01T06:20:08;8.23;;;1.30;;
1296;SDS011;641;48.492;9.184;2023-02-01T06:22:34;5.80;;;1.23;;
1296;SDS011;641;48.492;9.184;2023-02-01T06:25:01;6.60;;;1.20;;
1296;SDS011;641;48.492;9.184;2023-02-01T06:27:30;6.73;;;1.07;;
1296;SDS011;641;48.492;9.184;2023-02-01T06:29:56;6.90;;;1.23;;
1296;SDS011;641;48.492;9.184;2023-02-01T06:32:22;5.30;;;0.97;;
1296;SDS011;641;48.492;9.184;2023-02-01T06:34:48;6.13;;;1.20;;
1296;SDS011;641;48.492;9.184;2023-02-01T06:37:14;5.50;;;1.00;;
1296;SDS011;641;48.492;9.184;2023-02-01T06:39:40;7.00;;;1.40;;
1296;SDS011;641;48.492;9.184;2023-02-01T06:42:06;8.80;;;1.50;;
1296;SDS011;641;48.492;9.184;2023-02-01T06:44:32;6.63;;;1.60;;
1296;SDS011;641;48.492;9.184;2023-02-01T06:46:57;6.37;;;1.43;;
1296;SDS011;641;48.492;9.184;2023-02-01T06:49:23;6.10;;;1.20;;
1296;SDS011;641;48.492;9.184;2023-02-01T06:51:48;6.57;;;1.63;;
1296;SDS011;641;48.492;9.184;2023-02-01T06:54:14;6.60;;;1.77;;
1296;SDS011;641;48.492;9.184;2023-02-01T06:56:40;6.97;;;1.40;;
1296;SDS011;641;48.492;9.184;2023-02-01T06:59:06;7.50;;;1.50;;
1296;SDS011;641;48.492;9.184;2023-02-01T07:01:32;6.00;;;1.30;;
1296;SDS011;641;48.492;9.184;2023-02-01T07:03:58;6.63;;;1.40;;
1296;SDS011;641;48.492;9.184;2023-02-01T07:06:24;6.23;;;1.70;;
1296;SDS011;641;48.492;9.184;2023-02-01T07:08:50;8.20;;;1.60;;
1296;SDS011;641;48.492;9.184;2023-02-01T07:11:16;6.00;;;1.33;;
1296;SDS011;641;48.492;9.184;2023-02-01T07:13:43;6.83;;;2.20;;
1296;SDS011;641;48.492;9.184;2023-02-01T07:16:10;7.93;;;1.73;;
1296;SDS011;641;48.492;9.184;2023-02-01T07:18:40;8.10;;;1.60;;
1296;SDS011;641;48.492;9.184;2023-02-01T07:21:06;6.80;;;1.67;;
1296;SDS011;641;48.492;9.184;2023-02-01T07:23:32;6.43;;;1.30;;
1296;SDS011;641;48.492;9.184;2023-02-01T07:25:59;6.73;;;1.67;;
1296;SDS011;641;48.492;9.184;2023-02-01T07:28:28;7.70;;;1.73;;
1296;SDS011;641;48.492;9.184;2023-02-01T07:31:01;6.30;;;1.60;;
1296;SDS011;641;48.492;9.184;2023-02-01T07:33:47;7.10;;;1.60;;
1296;SDS011;641;48.492;9.184;2023-02-01T07:36:16;5.73;;;1.40;;
1296;SDS011;641;48.492;9.184;2023-02-01T07:38:42;6.43;;;1.43;;
1296;SDS011;641;48.492;9.184;2023-02-01T07:41:08;6.33;;;1.57;;
1296;SDS011;641;48.492;9.184;2023-02-01T07:43:37;6.30;;;1.30;;
1296;SDS011;641;48.492;9.184;2023-02-01T07:46:14;6.73;;;1.80;;
1296;SDS011;641;48.492;9.184;2023-02-01T07:49:10;10.83;;;2.37;;
1296;SDS011;641;48.492;9.184;2023-02-01T07:51:40;7.00;;;1.40;;
1296;SDS011;641;48.492;9.184;2023-02-01T07:54:09;7.17;;;1.70;;
1296;SDS011;641;48.492;9.184;2023-02-01T07:56:40;6.27;;;1.67;;
1296;SDS011;641;48.492;9.184;2023-02-01T07:59:08;6.13;;;1.27;;
1296;SDS011;641;48.492;9.184;2023-02-01T08:01:33;6.10;;;1.53;;
1296;SDS011;641;48.492;9.184;2023-02-01T08:04:02;6.77;;;1.70;;
1296;SDS011;641;48.492;9.184;2023-02-01T08:10:00;10.17;;;2.10;;
1296;SDS011;641;48.492;9.184;2023-02-01T08:12:36;7.77;;;1.40;;
1296;SDS011;641;48.492;9.184;2023-02-01T08:15:15;8.03;;;1.63;;
1296;SDS011;641;48.492;9.184;2023-02-01T08:17:50;6.30;;;1.50;;
1296;SDS011;641;48.492;9.184;2023-02-01T08:20:27;7.63;;;1.70;;
1296;SDS011;641;48.492;9.184;2023-02-01T08:23:00;8.00;;;1.80;;
1296;SDS011;641;48.492;9.184;2023-02-01T08:25:32;10.30;;;1.90;;
1296;SDS011;641;48.492;9.184;2023-02-01T08:27:59;5.43;;;1.00;;
1296;SDS011;641;48.492;9.184;2023-02-01T08:30:25;5.67;;;1.33;;
1296;SDS011;641;48.492;9.184;2023-02-01T08:32:52;6.23;;;1.33;;
1296;SDS011;641;48.492;9.184;2023-02-01T08:35:18;6.33;;;1.63;;
1296;SDS011;641;48.492;9.184;2023-02-01T08:37:44;7.27;;;1.60;;
1296;SDS011;641;48.492;9.184;2023-02-01T08:40:10;5.53;;;1.20;;
1296;SDS011;641;48.492;9.184;2023-02-01T08:42:38;6.43;;;1.53;;
1296;SDS011;641;48.492;9.184;2023-02-01T08:45:17;6.13;;;1.33;;
1296;SDS011;641;48.492;9.184;2023-02-01T08:47:46;5.90;;;1.30;;
1296;SDS011;641;48.492;9.184;2023-02-01T08:50:13;6.97;;;1.50;;
1296;SDS011;641;48.492;9.184;2023-02-01T08:52:39;7.80;;;1.70;;
1296;SDS011;641;48.492;9.184;2023-02-01T08:55:08;6.20;;;1.37;;
1296;SDS011;641;48.492;9.184;2023-02-01T08:57:35;6.80;;;1.40;;
1296;SDS011;641;48.492;9.184;2023-02-01T09:00:03;7.17;;;1.67;;
1296;SDS011;641;48.492;9.184;2023-02-01T09:02:33;7.03;;;1.13;;
1296;SDS011;641;48.492;9.184;2023-02-01T09:05:03;8.20;;;1.47;;
1296;SDS011;641;48.492;9.184;2023-02-01T09:07:29;9.20;;;1.40;;
1296;SDS011;641;48.492;9.184;2023-02-01T09:09:57;6.47;;;1.77;;
1296;SDS011;641;48.492;9.184;2023-02-01T09:12:29;7.13;;;1.97;;
1296;SDS011;641;48.492;9.184;2023-02-01T09:14:56;7.10;;;1.80;;
1296;SDS011;641;48.492;9.184;2023-02-01T09:17:24;5.90;;;1.23;;
1296;SDS011;641;48.492;9.184;2023-02-01T09:19:50;7.63;;;1.70;;
1296;SDS011;641;48.492;9.184;2023-02-01T09:22:16;10.00;;;1.70;;
1296;SDS011;641;48.492;9.184;2023-02-01T09:27:37;8.13;;;1.40;;
1296;SDS011;641;48.492;9.184;2023-02-01T09:30:03;6.77;;;1.50;;
1296;SDS011;641;48.492;9.184;2023-02-01T09:32:33;8.63;;;1.63;;
1296;SDS011;641;48.492;9.184;2023-02-01T09:34:59;8.80;;;2.10;;
1296;SDS011;641;48.492;9.184;2023-02-01T09:37:28;6.80;;;2.10;;
1296;SDS011;641;48.492;9.184;2023-02-01T09:40:04;8.50;;;2.40;;
1296;SDS011;641;48.492;9.184;2023-02-01T09:47:35;8.33;;;1.70;;
1296;SDS011;641;48.492;9.184;2023-02-01T09:50:05;9.33;;;1.53;;
1296;SDS011;641;48.492;9.184;2023-02-01T09:52:54;7.03;;;1.20;;
1296;SDS011;641;48.492;9.184;2023-02-01T09:55:20;10.57;;;2.17;;
1296;SDS011;641;48.492;9.184;2023-02-01T09:58:00;10.23;;;2.10;;
1296;SDS011;641;48.492;9.184;2023-02-01T10:00:34;10.23;;;2.03;;
1296;SDS011;641;48.492;9.184;2023-02-01T10:03:01;7.70;;;1.67;;
1296;SDS011;641;48.492;9.184;2023-02-01T10:10:45;10.50;;;2.23;;
1296;SDS011;641;48.492;9.184;2023-02-01T10:13:16;10.13;;;2.03;;
1296;SDS011;641;48.492;9.184;2023-02-01T10:18:37;10.33;;;2.10;;
1296;SDS011;641;48.492;9.184;2023-02-01T10:21:26;9.23;;;2.03;;
1296;SDS011;641;48.492;9.184;2023-02-01T10:26:45;8.43;;;2.17;;
1296;SDS011;641;48.492;9.184;2023-02-01T10:29:16;10.13;;;2.27;;
1296;SDS011;641;48.492;9.184;2023-02-01T10:31:49;13.10;;;2.40;;
1296;SDS011;641;48.492;9.184;2023-02-01T10:34:16;12.13;;;2.60;;
1296;SDS011;641;48.492;9.184;2023-02-01T10:36:52;8.93;;;2.07;;
1296;SDS011;641;48.492;9.184;2023-02-01T10:39:20;15.00;;;2.60;;
1296;SDS011;641;48.492;9.184;2023-02-01T10:41:47;10.20;;;2.23;;
1296;SDS011;641;48.492;9.184;2023-02-01T10:44:14;8.00;;;2.43;;
1296;SDS011;641;48.492;9.184;2023-02-01T10:46:43;10.13;;;1.97;;
1296;SDS011;641;48.492;9.184;2023-02-01T10:49:12;11.57;;;2.53;;
1296;SDS011;641;48.492;9.184;2023-02-01T10:51:43;13.43;;;2.80;;
1296;SDS011;641;48.492;9.184;2023-02-01T10:54:13;14.17;;;1.80;;
1296;SDS011;641;48.492;9.184;2023-02-01T10:56:45;10.03;;;2.13;;
1296;SDS011;641;48.492;9.184;2023-02-01T10:59:16;6.20;;;1.43;;
1296;SDS011;641;48.492;9.184;2023-02-01T11:01:48;13.63;;;2.20;;
1296;SDS011;641;48.492;9.184;2023-02-01T11:04:17;8.90;;;1.50;;
1296;SDS011;641;48.492;9.184;2023-02-01T11:07:05;12.27;;;2.30;;
1296;SDS011;641;48.492;9.184;2023-02-01T11:09:34;12.90;;;2.20;;
1296;SDS011;641;48.492;9.184;2023-02-01T11:12:04;12.70;;;1.73;;
1296;SDS011;641;48.492;9.184;2023-02-01T11:14:39;9.77;;;2.07;;
1296;SDS011;641;48.492;9.184;2023-02-01T11:19:46;11.93;;;1.83;;
1296;SDS011;641;48.492;9.184;2023-02-01T11:22:12;12.87;;;2.03;;
1296;SDS011;641;48.492;9.184;2023-02-01T11:24:46;6.87;;;1.73;;
1296;SDS011;641;48.492;9.184;2023-02-01T11:27:17;10.83;;;2.03;;
1296;SDS011;641;48.492;9.184;2023-02-01T11:29:47;9.60;;;2.40;;
1296;SDS011;641;48.492;9.184;2023-02-01T11:32:19;8.87;;;2.47;;
1296;SDS011;641;48.492;9.184;2023-02-01T11:35:11;13.00;;;2.50;;
1296;SDS011;641;48.492;9.184;2023-02-01T11:37:42;7.50;;;2.20;;
1296;SDS011;641;48.492;9.184;2023-02-01T11:40:34;11.20;;;2.27;;
1296;SDS011;641;48.492;9.184;2023-02-01T11:43:00;8.40;;;2.03;;
1296;SDS011;641;48.492;9.184;2023-02-01T11:45:30;6.60;;;1.50;;
1296;SDS011;641;48.492;9.184;2023-02-01T11:47:58;8.30;;;2.30;;
1296;SDS011;641;48.492;9.184;2023-02-01T11:50:28;7.73;;;1.73;;
1296;SDS011;641;48.492;9.184;2023-02-01T11:55:56;7.00;;;1.53;;
1296;SDS011;641;48.492;9.184;2023-02-01T12:04:15;7.63;;;1.77;;
1296;SDS011;641;48.492;9.184;2023-02-01T12:10:20;7.30;;;2.50;;
1296;SDS011;641;48.492;9.184;2023-02-01T12:13:14;10.43;;;2.00;;
1296;SDS011;641;48.492;9.184;2023-02-01T12:19:05;9.13;;;2.00;;
1296;SDS011;641;48.492;9.184;2023-02-01T12:22:00;8.00;;;1.80;;
1296;SDS011;641;48.492;9.184;2023-02-01T12:27:42;9.07;;;2.10;;
1296;SDS011;641;48.492;9.184;2023-02-01T12:30:16;9.40;;;2.00;;
1296;SDS011;641;48.492;9.184;2023-02-01T12:36:08;8.73;;;3.33;;
1296;SDS011;641;48.492;9.184;2023-02-01T12:38:42;10.10;;;2.00;;
1296;SDS011;641;48.492;9.184;2023-02-01T12:44:00;13.20;;;1.97;;
1296;SDS011;641;48.492;9.184;2023-02-01T12:46:57;9.90;;;1.80;;
1296;SDS011;641;48.492;9.184;2023-02-01T12:49:34;9.73;;;2.00;;
1296;SDS011;641;48.492;9.184;2023-02-01T12:52:42;13.53;;;2.00;;
1296;SDS011;641;48.492;9.184;2023-02-01T12:55:17;10.23;;;1.80;;
1296;SDS011;641;48.492;9.184;2023-02-01T12:58:03;9.73;;;1.97;;
1296;SDS011;641;48.492;9.184;2023-02-01T13:00:57;8.73;;;1.90;;
1296;SDS011;641;48.492;9.184;2023-02-01T13:06:19;9.87;;;1.80;;
1296;SDS011;641;48.492;9.184;2023-02-01T13:09:00;15.90;;;2.50;;
1296;SDS011;641;48.492;9.184;2023-02-01T13:11:48;17.47;;;3.00;;
1296;SDS011;641;48.492;9.184;2023-02-01T13:16:49;7.70;;;1.63;;
1296;SDS011;641;48.492;9.184;2023-02-01T13:19:20;8.90;;;1.87;;
1296;SDS011;641;48.492;9.184;2023-02-01T13:25:00;15.37;;;2.10;;
1296;SDS011;641;48.492;9.184;2023-02-01T13:27:37;14.50;;;3.10;;
1296;SDS011;641;48.492;9.184;2023-02-01T13:30:20;9.03;;;1.87;;
1296;SDS011;641;48.492;9.184;2023-02-01T13:33:04;11.07;;;2.70;;
1296;SDS011;641;48.492;9.184;2023-02-01T13:43:55;15.27;;;2.90;;
1296;SDS011;641;48.492;9.184;2023-02-01T13:46:26;14.17;;;2.70;;
1296;SDS011;641;48.492;9.184;2023-02-01T13:48:59;14.93;;;2.17;;
1296;SDS011;641;48.492;9.184;2023-02-01T13:51:38;9.03;;;2.40;;
1296;SDS011;641;48.492;9.184;2023-02-01T13:54:23;8.07;;;2.03;;
1296;SDS011;641;48.492;9.184;2023-02-01T13:56:52;12.00;;;3.20;;
1296;SDS011;641;48.492;9.184;2023-02-01T14:13:25;10.53;;;2.70;;
1296;SDS011;641;48.492;9.184;2023-02-01T14:26:43;10.20;;;2.50;;
1296;SDS011;641;48.492;9.184;2023-02-01T14:47:50;12.73;;;2.50;;
1296;SDS011;641;48.492;9.184;2023-02-01T14:55:44;14.23;;;3.17;;
1296;SDS011;641;48.492;9.184;2023-02-01T15:01:00;12.30;;;2.40;;
1296;SDS011;641;48.492;9.184;2023-02-01T15:06:33;15.83;;;2.17;;
1296;SDS011;641;48.492;9.184;2023-02-01T15:14:24;13.07;;;3.13;;
1296;SDS011;641;48.492;9.184;2023-02-01T15:16:51;15.40;;;4.07;;
1296;SDS011;641;48.492;9.184;2023-02-01T15:19:23;10.50;;;2.47;;
1296;SDS011;641;48.492;9.184;2023-02-01T15:21:51;12.20;;;2.33;;
1296;SDS011;641;48.492;9.184;2023-02-01T15:24:20;15.80;;;2.93;;
1296;SDS011;641;48.492;9.184;2023-02-01T15:26:50;11.67;;;2.63;;
1296;SDS011;641;48.492;9.184;2023-02-01T15:29:17;11.13;;;2.40;;
1296;SDS011;641;48.492;9.184;2023-02-01T15:31:47;11.07;;;3.37;;
1296;SDS011;641;48.492;9.184;2023-02-01T15:34:15;14.47;;;2.63;;
1296;SDS011;641;48.492;9.184;2023-02-01T15:36:42;14.13;;;2.93;;
1296;SDS011;641;48.492;9.184;2023-02-01T15:41:37;9.53;;;2.47;;
1296;SDS011;641;48.492;9.184;2023-02-01T15:44:09;14.40;;;2.50;;
1296;SDS011;641;48.492;9.184;2023-02-01T15:46:43;12.37;;;1.80;;
1296;SDS011;641;48.492;9.184;2023-02-01T15:49:17;18.10;;;3.03;;
1296;SDS011;641;48.492;9.184;2023-02-01T15:51:54;14.00;;;2.80;;
1296;SDS011;641;48.492;9.184;2023-02-01T15:54:23;10.30;;;2.17;;
1296;SDS011;641;48.492;9.184;2023-02-01T15:56:55;9.30;;;2.40;;
1296;SDS011;641;48.492;9.184;2023-02-01T15:59:24;9.00;;;2.50;;
1296;SDS011;641;48.492;9.184;2023-02-01T16:01:55;10.87;;;2.90;;
1296;SDS011;641;48.492;9.184;2023-02-01T16:04:22;19.37;;;3.27;;
1296;SDS011;641;48.492;9.184;2023-02-01T16:06:51;13.60;;;3.73;;
1296;SDS011;641;48.492;9.184;2023-02-01T16:09:48;16.13;;;2.93;;
1296;SDS011;641;48.492;9.184;2023-02-01T16:14:53;16.83;;;2.27;;
1296;SDS011;641;48.492;9.184;2023-02-01T16:17:18;13.40;;;2.90;;
1296;SDS011;641;48.492;9.184;2023-02-01T16:19:44;9.67;;;2.43;;
1296;SDS011;641;48.492;9.184;2023-02-01T16:22:10;14.37;;;3.00;;
1296;SDS011;641;48.492;9.184;2023-02-01T16:24:35;15.10;;;2.80;;
1296;SDS011;641;48.492;9.184;2023-02-01T16:27:01;21.03;;;2.73;;
1296;SDS011;641;48.492;9.184;2023-02-01T16:29:27;17.40;;;3.77;;
1296;SDS011;641;48.492;9.184;2023-02-01T16:31:53;12.50;;;2.30;;
1296;SDS011;641;48.492;9.184;2023-02-01T16:34:19;9.10;;;2.40;;
1296;SDS011;641;48.492;9.184;2023-02-01T16:36:48;11.80;;;2.80;;
1296;SDS011;641;48.492;9.184;2023-02-01T16:39:16;12.27;;;2.60;;
1296;SDS011;641;48.492;9.184;2023-02-01T16:41:43;12.37;;;2.57;;
1296;SDS011;641;48.492;9.184;2023-02-01T16:44:10;18.00;;;3.00;;
1296;SDS011;641;48.492;9.184;2023-02-01T16:46:39;15.40;;;4.00;;
1296;SDS011;641;48.492;9.184;2023-02-01T16:49:05;11.50;;;3.00;;
1296;SDS011;641;48.492;9.184;2023-02-01T16:51:41;10.10;;;3.17;;
1296;SDS011;641;48.492;9.184;2023-02-01T16:54:07;11.50;;;3.20;;
1296;SDS011;641;48.492;9.184;2023-02-01T16:56:33;11.37;;;2.50;;
1296;SDS011;641;48.492;9.184;2023-02-01T16:59:00;15.43;;;2.87;;
1296;SDS011;641;48.492;9.184;2023-02-01T17:01:26;14.67;;;3.27;;
1296;SDS011;641;48.492;9.184;2023-02-01T17:03:52;17.73;;;3.47;;
1296;SDS011;641;48.492;9.184;2023-02-01T17:06:19;11.53;;;2.40;;
1296;SDS011;641;48.492;9.184;2023-02-01T17:08:51;12.27;;;2.67;;
1296;SDS011;641;48.492;9.184;2023-02-01T17:11:20;14.83;;;2.70;;
1296;SDS011;641;48.492;9.184;2023-02-01T17:13:46;12.87;;;2.50;;
1296;SDS011;641;48.492;9.184;2023-02-01T17:16:15;13.27;;;2.73;;
1296;SDS011;641;48.492;9.184;2023-02-01T17:18:44;12.13;;;2.67;;
1296;SDS011;641;48.492;9.184;2023-02-01T17:21:15;51.80;;;21.00;;
1296;SDS011;641;48.492;9.184;2023-02-01T17:23:41;32.67;;;14.40;;
1296;SDS011;641;48.492;9.184;2023-02-01T17:26:08;23.93;;;8.77;;
1296;SDS011;641;48.492;9.184;2023-02-01T17:28:34;14.50;;;3.73;;
1296;SDS011;641;48.492;9.184;2023-02-01T17:31:00;18.40;;;5.83;;
1296;SDS011;641;48.492;9.184;2023-02-01T17:33:30;18.43;;;7.07;;
1296;SDS011;641;48.492;9.184;2023-02-01T17:35:58;20.20;;;6.27;;
1296;SDS011;641;48.492;9.184;2023-02-01T17:38:24;19.73;;;3.60;;
1296;SDS011;641;48.492;9.184;2023-02-01T17:40:50;12.60;;;4.20;;
1296;SDS011;641;48.492;9.184;2023-02-01T17:43:20;12.53;;;4.10;;
1296;SDS011;641;48.492;9.184;2023-02-01T17:45:48;20.17;;;3.50;;
1296;SDS011;641;48.492;9.184;2023-02-01T17:48:23;12.83;;;3.80;;
1296;SDS011;641;48.492;9.184;2023-02-01T17:50:49;12.67;;;3.10;;
1296;SDS011;641;48.492;9.184;2023-02-01T17:53:19;9.90;;;2.87;;
1296;SDS011;641;48.492;9.184;2023-02-01T17:55:48;13.57;;;4.00;;
1296;SDS011;641;48.492;9.184;2023-02-01T17:58:14;10.07;;;2.57;;
1296;SDS011;641;48.492;9.184;2023-02-01T18:00:41;11.20;;;3.53;;
1296;SDS011;641;48.492;9.184;2023-02-01T18:03:21;13.60;;;3.77;;
1296;SDS011;641;48.492;9.184;2023-02-01T18:05:51;23.90;;;4.33;;
1296;SDS011;641;48.492;9.184;2023-02-01T18:08:19;10.30;;;3.50;;
1296;SDS011;641;48.492;9.184;2023-02-01T18:10:47;12.50;;;3.07;;
1296;SDS011;641;48.492;9.184;2023-02-01T18:13:18;10.03;;;3.77;;
1296;SDS011;641;48.492;9.184;2023-02-01T18:15:44;10.90;;;3.03;;
1296;SDS011;641;48.492;9.184;2023-02-01T18:18:11;8.50;;;2.97;;
1296;SDS011;641;48.492;9.184;2023-02-01T18:20:38;11.97;;;3.03;;
1296;SDS011;641;48.492;9.184;2023-02-01T18:23:11;19.20;;;4.50;;